Time;durP1;ratioP1;P1;durP2;ratioP2;P2;SDS_P1;SDS_P2;PMS_P1;PMS_P2;Temp;Humidity;BMP_temperature;BMP_pressure;BME280_temperature;BME280_humidity;BME280_pressure;Samples;Min_cycle;Max_cycle;Signal;HPM_P1;HPM_P2
2021/01/21 00:00:02;;;;;;;2.22;1.20;;;;;;;14.58;46.18;99281.84;4919000;28;98501;-62
2021/01/21 00:02:28;;;;;;;2.13;0.98;;;;;;;14.55;46.19;99271.63;4915185;28;99411;-64
2021/01/21 00:04:54;;;;;;;1.80;1.10;;;;;;;14.58;45.83;99275.59;4917804;28;112494;-62
2021/01/21 00:07:20;;;;;;;1.85;1.05;;;;;;;14.58;45.67;99259.31;4916059;28;97805;-62
2021/01/21 00:09:46;;;;;;;2.03;1.00;;;;;;;14.60;45.79;99273.38;4916693;28;127092;-62
2021/01/21 00:12:12;;;;;;;1.60;0.98;;;;;;;14.58;46.01;99262.84;4916661;28;114166;-62
2021/01/21 00:14:38;;;;;;;2.20;1.30;;;;;;;14.60;45.65;99262.53;4905074;28;98224;-64
2021/01/21 00:17:04;;;;;;;1.92;1.10;;;;;;;14.58;45.83;99259.31;4899513;28;122621;-64
2021/01/21 00:19:30;;;;;;;2.00;1.30;;;;;;;14.60;45.47;99260.59;4901444;28;98850;-62
2021/01/21 00:21:56;;;;;;;2.85;1.30;;;;;;;14.54;45.36;99253.78;4899150;28;128691;-63
2021/01/21 00:24:22;;;;;;;2.10;1.20;;;;;;;14.56;45.90;99258.88;4900153;28;128308;-63
2021/01/21 00:26:48;;;;;;;2.47;1.20;;;;;;;14.57;45.58;99252.31;4909643;28;122806;-63
2021/01/21 00:29:14;;;;;;;2.42;1.30;;;;;;;14.56;45.74;99248.81;4912772;28;98043;-63
2021/01/21 00:31:40;;;;;;;2.67;1.42;;;;;;;14.56;45.83;99259.66;4901516;28;128137;-64
2021/01/21 00:34:07;;;;;;;2.60;1.50;;;;;;;14.57;45.60;99247.69;4917973;28;113362;-62
2021/01/21 00:36:33;;;;;;;2.85;1.60;;;;;;;14.54;45.95;99251.06;4919612;28;97719;-62
2021/01/21 00:38:59;;;;;;;3.50;1.50;;;;;;;14.54;45.60;99245.66;4911837;28;122254;-63
2021/01/21 00:41:25;;;;;;;2.25;1.50;;;;;;;14.51;45.55;99250.91;4918064;28;128278;-62
2021/01/21 00:43:51;;;;;;;2.78;1.70;;;;;;;14.49;45.88;99256.63;4916999;28;126507;-62
2021/01/21 00:46:17;;;;;;;2.30;1.42;;;;;;;14.48;46.13;99247.69;4901315;28;123720;-63
2021/01/21 00:48:45;;;;;;;2.53;1.58;;;;;;;14.48;45.78;99249.59;4893979;28;98683;-64
2021/01/21 00:51:11;;;;;;;3.28;1.58;;;;;;;14.46;45.54;99239.09;4902538;28;99574;-63
2021/01/21 00:53:37;;;;;;;3.05;1.63;;;;;;;14.44;45.73;99237.81;4893876;28;97878;-62
2021/01/21 00:56:04;;;;;;;2.25;1.70;;;;;;;14.43;45.92;99242.44;4915960;28;108475;-62
2021/01/21 00:58:30;;;;;;;2.13;1.40;;;;;;;14.38;46.01;99250.75;4903437;28;116145;-62
2021/01/21 01:00:56;;;;;;;2.92;1.88;;;;;;;14.39;45.87;99246.91;4922477;28;113388;-63
2021/01/21 01:03:22;;;;;;;2.95;2.00;;;;;;;14.35;46.21;99245.16;4922850;28;125478;-62
2021/01/21 01:05:48;;;;;;;2.92;1.90;;;;;;;14.35;46.28;99242.47;4921741;28;123382;-62
2021/01/21 01:08:14;;;;;;;3.05;1.77;;;;;;;14.34;45.98;99241.63;4923219;28;98200;-62
2021/01/21 01:10:40;;;;;;;2.63;1.90;;;;;;;14.33;45.85;99244.69;4923087;28;103146;-62
2021/01/21 01:13:06;;;;;;;3.33;1.70;;;;;;;14.32;46.03;99243.09;4914281;28;102651;-63
2021/01/21 01:15:33;;;;;;;3.03;2.15;;;;;;;14.29;45.76;99238.31;4922879;28;113327;-63
2021/01/21 01:18:00;;;;;;;2.47;2.13;;;;;;;14.28;46.07;99247.56;4914350;28;98964;-62
2021/01/21 01:20:26;;;;;;;3.55;2.17;;;;;;;14.25;45.63;99238.94;4926079;28;127349;-63
2021/01/21 01:22:53;;;;;;;3.35;2.13;;;;;;;14.27;45.84;99237.84;4915155;28;126693;-63
2021/01/21 01:25:20;;;;;;;3.42;2.38;;;;;;;14.25;46.00;99236.22;4922060;28;97862;-63
2021/01/21 01:27:46;;;;;;;3.38;2.58;;;;;;;14.24;46.04;99231.16;4914943;28;98333;-63
2021/01/21 01:30:14;;;;;;;3.08;2.53;;;;;;;14.20;45.41;99222.84;4922134;28;116467;-62
2021/01/21 01:32:40;;;;;;;4.70;2.83;;;;;;;14.23;45.39;99224.16;4915791;28;98460;-61
2021/01/21 01:35:07;;;;;;;4.35;2.75;;;;;;;14.23;45.38;99224.94;4922223;28;105451;-62
2021/01/21 01:37:33;;;;;;;4.93;3.20;;;;;;;14.19;45.04;99217.78;4916271;28;98472;-63
2021/01/21 01:39:59;;;;;;;3.65;2.95;;;;;;;14.20;45.67;99225.56;4919377;28;128186;-62
2021/01/21 01:42:25;;;;;;;4.82;3.20;;;;;;;14.21;45.16;99204.69;4917352;28;98391;-64
2021/01/21 01:44:51;;;;;;;4.18;2.78;;;;;;;14.21;45.55;99201.97;4919019;28;122945;-63
2021/01/21 01:47:18;;;;;;;4.90;3.15;;;;;;;14.22;45.08;99204.34;4917945;28;127323;-62
2021/01/21 01:49:45;;;;;;;4.38;3.17;;;;;;;14.20;44.89;99206.59;4899761;28;128215;-63
2021/01/21 01:52:11;;;;;;;5.00;3.13;;;;;;;14.21;45.14;99213.59;4900187;28;104471;-62
2021/01/21 01:54:40;;;;;;;5.00;3.40;;;;;;;14.21;44.81;99207.41;4896642;28;98801;-62
2021/01/21 01:57:06;;;;;;;4.25;3.17;;;;;;;14.19;44.93;99207.72;4900312;28;98404;-63
2021/01/21 01:59:34;;;;;;;4.57;3.53;;;;;;;14.18;44.85;99200.69;4875574;28;108221;-62
2021/01/21 03:10:10;;;;;;;7.03;4.25;;;;;;;11.95;51.22;99155.41;4905709;28;98704;-63
2021/01/21 03:12:36;;;;;;;7.60;4.68;;;;;;;12.15;49.82;99158.72;4883646;28;98424;-64
2021/01/21 03:15:04;;;;;;;8.77;4.40;;;;;;;12.31;49.29;99148.31;4901036;28;122329;-63
2021/01/21 03:17:30;;;;;;;8.25;4.50;;;;;;;12.46;49.16;99148.69;4883008;28;101428;-64
2021/01/21 03:19:56;;;;;;;6.25;4.32;;;;;;;12.62;48.96;99149.09;4901779;28;127603;-64
2021/01/21 03:22:22;;;;;;;7.03;3.97;;;;;;;12.75;48.42;99155.47;4901212;28;128438;-63
2021/01/21 03:24:48;;;;;;;6.78;3.97;;;;;;;12.91;48.04;99147.72;4921526;28;98260;-63
2021/01/21 03:27:14;;;;;;;6.80;4.38;;;;;;;12.96;47.82;99145.66;4919996;28;106636;-64
2021/01/21 03:29:40;;;;;;;6.38;3.78;;;;;;;13.06;47.78;99151.91;4918089;28;128899;-64
2021/01/21 03:32:06;;;;;;;7.30;4.40;;;;;;;13.08;47.21;99147.75;4921006;28;97996;-64
2021/01/21 03:34:32;;;;;;;6.63;3.88;;;;;;;13.17;46.96;99131.56;4918360;28;122995;-64
2021/01/21 03:36:58;;;;;;;5.85;3.80;;;;;;;13.20;46.85;99141.72;4902398;28;112917;-63
2021/01/21 03:39:24;;;;;;;6.35;3.80;;;;;;;13.27;46.48;99142.09;4920914;28;112705;-63
2021/01/21 03:41:51;;;;;;;5.15;3.97;;;;;;;13.35;46.33;99135.09;4920404;28;120085;-63
2021/01/21 03:44:17;;;;;;;5.18;4.30;;;;;;;13.35;46.50;99135.91;4921051;28;98007;-63
2021/01/21 03:46:43;;;;;;;6.43;4.35;;;;;;;13.42;45.83;99147.06;4903404;28;98390;-64
2021/01/21 03:49:10;;;;;;;5.53;4.15;;;;;;;13.42;46.19;99135.44;4885638;28;108922;-63
2021/01/21 03:51:36;;;;;;;5.18;3.70;;;;;;;13.47;46.54;99136.06;4885495;28;119827;-64
2021/01/21 03:54:02;;;;;;;5.85;4.30;;;;;;;13.51;46.31;99131.59;4902294;28;118302;-62
2021/01/21 03:56:28;;;;;;;5.57;4.20;;;;;;;13.51;46.82;99134.31;4902125;28;117885;-63
2021/01/21 03:58:54;;;;;;;5.25;4.00;;;;;;;13.53;46.05;99135.91;4919200;28;126822;-63
2021/01/21 04:01:20;;;;;;;5.18;4.20;;;;;;;13.55;45.83;99136.38;4919537;28;126730;-64
2021/01/21 04:03:47;;;;;;;6.97;4.32;;;;;;;13.53;45.77;99133.22;4924284;28;98168;-64
2021/01/21 04:06:13;;;;;;;5.85;4.32;;;;;;;13.49;45.21;99127.63;4919626;28;121631;-63
2021/01/21 04:08:39;;;;;;;5.00;4.03;;;;;;;13.53;45.16;99128.59;4921108;28;99461;-63
2021/01/21 04:11:05;;;;;;;5.60;4.28;;;;;;;13.54;45.20;99119.34;4919191;28;127540;-63
2021/01/21 04:13:31;;;;;;;5.40;4.40;;;;;;;13.60;45.00;99125.41;4919402;28;120919;-63
2021/01/21 04:15:57;;;;;;;5.15;4.28;;;;;;;13.63;45.40;99124.75;4920132;28;127706;-63
2021/01/21 04:18:23;;;;;;;4.88;4.10;;;;;;;13.67;45.44;99118.38;4919323;28;128305;-63
2021/01/21 04:20:49;;;;;;;4.90;3.95;;;;;;;13.71;45.41;99121.25;4919542;28;127090;-64
2021/01/21 04:23:15;;;;;;;5.53;4.00;;;;;;;13.70;45.48;99112.31;4901021;28;122127;-64
2021/01/21 04:25:41;;;;;;;6.03;4.35;;;;;;;13.73;45.62;99121.72;4917901;28;127233;-63
2021/01/21 04:28:07;;;;;;;5.20;3.90;;;;;;;13.75;45.34;99111.34;4917801;28;128178;-63
2021/01/21 04:30:33;;;;;;;5.10;4.07;;;;;;;13.74;45.75;99117.91;4902433;28;124558;-63
2021/01/21 04:32:59;;;;;;;5.15;3.95;;;;;;;13.70;45.37;99106.13;4903011;28;121180;-64
2021/01/21 04:35:25;;;;;;;5.78;4.22;;;;;;;13.72;45.36;99103.91;4923659;28;105714;-64
2021/01/21 04:37:51;;;;;;;5.28;4.53;;;;;;;13.66;44.87;99097.84;4922224;28;128866;-63
2021/01/21 04:40:17;;;;;;;5.85;4.50;;;;;;;13.67;45.14;99098.63;4924224;28;97825;-63
2021/01/21 04:42:43;;;;;;;5.88;4.25;;;;;;;13.68;44.97;99100.25;4904705;28;124507;-63
2021/01/21 04:45:10;;;;;;;5.63;4.60;;;;;;;13.66;45.08;99091.63;4904471;28;128177;-64
2021/01/21 04:47:36;;;;;;;6.05;4.90;;;;;;;13.70;44.98;99087.16;4920431;28;117898;-64
2021/01/21 04:50:04;;;;;;;5.80;4.47;;;;;;;13.61;44.50;99089.09;4905853;28;110273;-63
2021/01/21 04:52:32;;;;;;;5.00;4.28;;;;;;;13.58;44.77;99097.84;4922712;28;97998;-62
2021/01/21 04:55:04;;;;;;;5.88;4.50;;;;;;;13.58;44.78;99087.03;4889691;28;120760;-63
2021/01/21 04:58:06;;;;;;;6.05;4.45;;;;;;;13.57;44.71;99086.22;4921842;28;117695;-64
2021/01/21 05:00:32;;;;;;;5.40;4.90;;;;;;;13.56;44.74;99086.53;4869466;28;98700;-63
2021/01/21 05:02:59;;;;;;;6.93;5.20;;;;;;;13.55;45.05;99090.34;4882297;28;99319;-64
2021/01/21 05:05:25;;;;;;;5.70;4.90;;;;;;;13.57;45.01;99097.06;4885491;28;112281;-64
2021/01/21 05:07:51;;;;;;;6.85;5.65;;;;;;;13.57;45.05;99099.75;4865299;28;128368;-64
2021/01/21 05:10:18;;;;;;;6.60;5.60;;;;;;;13.52;45.04;99089.09;4866007;28;113629;-64
2021/01/21 05:12:44;;;;;;;6.55;5.35;;;;;;;13.55;45.00;99093.84;4856576;28;122533;-63
2021/01/21 05:15:10;;;;;;;7.45;5.68;;;;;;;13.55;44.92;99098.47;4884491;28;127263;-64
2021/01/21 05:17:36;;;;;;;6.60;5.55;;;;;;;13.57;45.01;99101.69;4901991;28;122323;-64
2021/01/21 05:20:02;;;;;;;6.00;5.38;;;;;;;13.54;45.07;99094.97;4885528;28;127984;-64
2021/01/21 05:22:28;;;;;;;8.20;5.95;;;;;;;13.51;45.07;99096.41;4901631;28;97957;-63
2021/01/21 05:24:55;;;;;;;7.13;5.90;;;;;;;13.51;45.07;99082.09;4901541;28;128296;-63
2021/01/21 05:27:21;;;;;;;6.90;6.20;;;;;;;13.50;44.94;99089.41;4913192;28;98281;-63
2021/01/21 05:29:48;;;;;;;6.72;5.85;;;;;;;13.53;45.45;99081.78;4905201;28;98222;-63
2021/01/21 05:32:15;;;;;;;6.75;5.78;;;;;;;13.54;45.29;99094.97;4922284;28;98214;-63
2021/01/21 05:34:43;;;;;;;7.13;6.32;;;;;;;13.54;45.23;99084.16;4922578;28;98133;-63
2021/01/21 05:37:13;;;;;;;7.57;6.22;;;;;;;13.51;45.53;99091.00;4903973;28;98387;-64
2021/01/21 05:39:40;;;;;;;6.50;5.82;;;;;;;13.52;45.25;99078.28;4923189;28;108914;-63
2021/01/21 05:42:06;;;;;;;7.90;6.07;;;;;;;13.51;45.27;99079.38;4921901;28;97868;-63
2021/01/21 05:44:33;;;;;;;7.22;6.45;;;;;;;13.45;45.26;99073.34;4921834;28;98328;-63
2021/01/21 05:47:09;;;;;;;7.40;6.30;;;;;;;13.38;44.84;99083.84;4902910;28;98569;-64
2021/01/21 05:49:36;;;;;;;9.55;6.75;;;;;;;13.47;44.72;99079.22;4905441;28;99412;-64
2021/01/21 05:52:02;;;;;;;8.52;6.75;;;;;;;13.44;44.60;99084.47;4921799;28;97907;-64
2021/01/21 05:54:29;;;;;;;7.65;6.22;;;;;;;13.46;45.17;99076.84;4921622;28;107627;-64
2021/01/21 05:56:56;;;;;;;9.07;6.30;;;;;;;13.46;45.15;99068.72;4921615;28;115724;-63
2021/01/21 05:59:24;;;;;;;8.43;6.93;;;;;;;13.44;44.89;99069.06;4903880;28;103284;-63
2021/01/21 06:01:51;;;;;;;7.90;6.82;;;;;;;13.38;44.61;99069.53;4921881;28;98146;-64
2021/01/21 06:04:17;;;;;;;7.43;6.38;;;;;;;13.37;44.59;99074.13;4903455;28;119222;-63
2021/01/21 06:06:44;;;;;;;7.40;5.93;;;;;;;13.39;44.55;99071.09;4921966;28;123463;-63
2021/01/21 06:09:15;;;;;;;8.43;6.30;;;;;;;13.43;44.62;99080.19;4903382;28;104991;-64
2021/01/21 06:11:42;;;;;;;7.95;6.20;;;;;;;13.42;44.32;99075.88;4921406;28;97863;-64
2021/01/21 06:14:10;;;;;;;7.30;5.75;;;;;;;13.42;44.32;99060.44;4921955;28;98879;-63
2021/01/21 06:16:37;;;;;;;6.70;6.07;;;;;;;13.44;44.38;99063.63;4904294;28;98799;-64
2021/01/21 06:19:03;;;;;;;6.70;5.78;;;;;;;13.53;44.39;99076.38;4903057;28;118192;-62
2021/01/21 06:21:30;;;;;;;8.30;6.03;;;;;;;13.58;44.08;99073.47;4920890;28;123772;-63
2021/01/21 06:24:05;;;;;;;6.93;5.38;;;;;;;13.64;44.09;99069.50;4902400;28;123185;-62
2021/01/21 06:26:49;;;;;;;6.25;5.30;;;;;;;13.67;44.00;99066.13;4921276;28;97966;-64
2021/01/21 06:29:19;;;;;;;6.65;5.28;;;;;;;13.67;44.02;99071.56;4904351;28;98301;-63
2021/01/21 06:31:49;;;;;;;7.00;5.32;;;;;;;13.73;44.07;99068.38;4921377;28;97998;-64
2021/01/21 06:34:24;;;;;;;6.82;5.38;;;;;;;13.72;44.04;99066.78;4922455;28;98110;-63
2021/01/21 06:36:58;;;;;;;6.95;5.30;;;;;;;13.76;44.03;99066.94;4902579;28;98375;-62
2021/01/21 06:40:06;;;;;;;5.82;5.18;;;;;;;13.78;44.27;99066.59;4889526;28;100293;-62
2021/01/21 06:42:45;;;;;;;6.70;5.38;;;;;;;13.75;44.28;99070.75;4864270;28;98003;-64
2021/01/21 06:45:11;;;;;;;6.60;5.00;;;;;;;13.82;44.27;99073.75;4904184;28;98374;-63
2021/01/21 06:47:37;;;;;;;7.40;5.40;;;;;;;13.79;44.21;99062.78;4917897;28;124120;-63
2021/01/21 06:50:05;;;;;;;7.18;5.68;;;;;;;13.72;43.89;99057.88;4920252;28;128574;-63
2021/01/21 06:52:33;;;;;;;5.82;5.20;;;;;;;13.73;43.84;99071.06;4903023;28;97998;-63
2021/01/21 06:55:00;;;;;;;6.63;5.43;;;;;;;13.75;43.84;99060.72;4902543;28;119736;-63
2021/01/21 06:57:35;;;;;;;5.95;5.15;;;;;;;13.71;43.79;99061.66;4919016;28;109814;-63
2021/01/21 07:00:01;;;;;;;6.75;5.30;;;;;;;13.69;43.70;99062.00;4921453;28;98086;-63
2021/01/21 07:02:49;;;;;;;6.63;5.10;;;;;;;13.66;43.50;99057.22;4921714;28;97672;-62
2021/01/21 07:05:19;;;;;;;7.13;5.25;;;;;;;13.66;43.69;99054.50;4903767;28;98538;-64
2021/01/21 07:08:04;;;;;;;7.13;5.70;;;;;;;13.70;43.42;99062.78;4921232;28;98400;-63
2021/01/21 07:10:42;;;;;;;5.78;5.00;;;;;;;13.72;43.52;99053.25;4907744;28;98486;-64
2021/01/21 07:13:14;;;;;;;6.75;5.50;;;;;;;13.75;43.91;99038.25;4900915;28;98367;-62
2021/01/21 07:16:00;;;;;;;5.85;5.10;;;;;;;13.74;43.61;99053.69;4883920;28;117557;-64
2021/01/21 07:18:36;;;;;;;5.82;5.18;;;;;;;13.78;43.79;99055.78;4893906;28;98447;-63
2021/01/21 07:21:16;;;;;;;5.82;5.20;;;;;;;13.75;43.95;99049.06;4902209;28;97892;-63
2021/01/21 07:23:44;;;;;;;6.97;5.07;;;;;;;13.76;43.70;99042.56;4893949;28;97974;-63
2021/01/21 07:26:34;;;;;;;7.10;5.65;;;;;;;13.76;43.63;99047.97;4901474;28;98626;-63
2021/01/21 07:29:19;;;;;;;6.32;5.47;;;;;;;13.73;43.59;99049.41;4901191;28;98724;-64
2021/01/21 07:31:59;;;;;;;6.80;5.93;;;;;;;13.73;43.51;99057.53;4900511;28;98243;-63
2021/01/21 07:34:40;;;;;;;6.30;5.70;;;;;;;13.77;43.88;99048.78;4878605;28;97815;-64
2021/01/21 07:37:27;;;;;;;6.47;5.80;;;;;;;13.76;43.73;99053.41;4881839;28;98690;-64
2021/01/21 07:40:07;;;;;;;6.60;5.60;;;;;;;13.76;44.32;99058.81;4899709;28;99174;-64
2021/01/21 07:42:33;;;;;;;6.93;6.05;;;;;;;13.80;44.38;99058.97;4898843;28;98127;-63
2021/01/21 07:45:32;;;;;;;6.88;5.43;;;;;;;13.88;44.45;99053.53;4901170;28;97774;-63
2021/01/21 07:48:17;;;;;;;5.93;5.00;;;;;;;13.88;44.84;99047.31;4896139;28;99940;-63
2021/01/21 07:50:43;;;;;;;6.35;5.68;;;;;;;13.92;45.01;99037.41;4900933;28;98314;-64
2021/01/21 07:53:28;;;;;;;7.30;5.40;;;;;;;13.99;45.13;99045.84;4884569;28;98567;-63
2021/01/21 07:55:55;;;;;;;6.40;5.40;;;;;;;14.09;45.22;99044.69;4900540;28;121040;-63
2021/01/21 07:58:30;;;;;;;7.00;5.72;;;;;;;14.13;44.91;99051.84;4882587;28;98112;-63
2021/01/21 08:00:58;;;;;;;7.03;5.68;;;;;;;14.16;44.71;99050.41;4901050;28;98796;-64
2021/01/21 08:03:32;;;;;;;6.45;5.82;;;;;;;14.25;44.64;99037.59;4891980;28;97938;-63
2021/01/21 08:06:15;;;;;;;7.15;6.20;;;;;;;14.33;44.79;99033.25;4900391;28;97841;-64
2021/01/21 08:08:43;;;;;;;6.97;5.63;;;;;;;14.53;43.79;99040.69;4900503;28;99884;-63
2021/01/21 08:11:15;;;;;;;6.18;5.57;;;;;;;14.53;44.19;99035.25;4920056;28;98647;-64
2021/01/21 08:13:41;;;;;;;7.90;6.13;;;;;;;14.61;44.20;99039.03;4900663;28;99757;-64
2021/01/21 08:16:14;;;;;;;7.05;5.82;;;;;;;14.58;44.66;99034.25;4919534;28;97934;-63
2021/01/21 08:18:40;;;;;;;6.30;5.60;;;;;;;14.68;44.03;99023.84;4918204;28;98232;-64
2021/01/21 08:21:25;;;;;;;7.25;5.68;;;;;;;14.95;44.15;99002.75;4920687;28;98341;-64
2021/01/21 08:24:02;;;;;;;7.28;5.90;;;;;;;15.25;44.19;99008.09;4901858;28;98001;-63
2021/01/21 08:26:30;;;;;;;7.03;5.90;;;;;;;15.04;44.22;98999.97;4896367;28;97762;-63
2021/01/21 08:28:59;;;;;;;6.93;6.03;;;;;;;14.85;45.65;99014.00;4901637;28;98298;-63
2021/01/21 08:31:47;;;;;;;6.28;5.68;;;;;;;14.73;46.14;99012.00;4919530;28;98388;-63
2021/01/21 08:34:17;;;;;;;8.10;5.45;;;;;;;14.59;46.19;99017.69;4886204;28;98695;-63
2021/01/21 08:36:43;;;;;;;6.95;5.55;;;;;;;14.57;46.40;99024.56;4900176;28;98002;-64
2021/01/21 08:39:11;;;;;;;6.85;5.57;;;;;;;14.51;46.87;99025.88;4882851;28;121844;-63
2021/01/21 08:41:37;;;;;;;6.65;5.95;;;;;;;14.54;46.42;99027.91;4899150;28;99105;-63
2021/01/21 08:44:03;;;;;;;6.22;5.50;;;;;;;14.80;46.34;99036.69;4875722;28;128001;-64
2021/01/21 08:46:29;;;;;;;6.57;5.57;;;;;;;15.47;45.27;99024.81;4901275;28;103165;-63
2021/01/21 08:48:56;;;;;;;5.97;5.30;;;;;;;16.20;44.43;99002.44;4920071;28;98859;-64
2021/01/21 08:51:37;;;;;;;6.10;4.97;;;;;;;17.02;43.39;99006.13;4918563;28;98044;-64
2021/01/21 08:54:23;;;;;;;5.70;5.00;;;;;;;17.86;42.64;98985.06;4919953;28;98165;-63
2021/01/21 08:57:14;;;;;;;5.47;4.97;;;;;;;18.55;41.82;98980.06;4918819;28;97684;-64
2021/01/21 08:59:41;;;;;;;5.47;4.60;;;;;;;19.08;41.54;98987.84;4895335;28;98725;-63
2021/01/21 09:02:08;;;;;;;5.95;4.85;;;;;;;19.63;40.61;98976.81;4918645;28;98931;-64
2021/01/21 09:04:35;;;;;;;5.30;4.68;;;;;;;20.02;40.78;98967.31;4914198;28;100092;-63
2021/01/21 09:07:02;;;;;;;5.05;4.55;;;;;;;20.40;40.15;98960.09;4917057;28;98191;-63
2021/01/21 09:09:32;;;;;;;5.30;4.80;;;;;;;20.85;40.28;98966.56;4918212;28;98413;-64
2021/01/21 09:12:19;;;;;;;5.25;4.72;;;;;;;21.02;40.51;98971.47;4900857;28;98664;-65
2021/01/21 09:15:06;;;;;;;5.22;4.72;;;;;;;20.66;41.80;98972.97;4919357;28;98166;-64
2021/01/21 09:17:32;;;;;;;6.05;5.10;;;;;;;20.68;41.62;98978.88;4919696;28;97830;-64
2021/01/21 09:19:59;;;;;;;5.18;4.68;;;;;;;20.15;42.04;98984.31;4919958;28;99009;-64
2021/01/21 09:22:29;;;;;;;5.60;4.63;;;;;;;19.69;43.05;98989.00;4920842;28;98318;-63
2021/01/21 09:25:05;;;;;;;4.93;4.43;;;;;;;19.34;44.20;99003.56;4920862;28;98084;-64
2021/01/21 09:27:36;;;;;;;5.75;4.82;;;;;;;19.00;44.49;99010.69;4920065;28;98497;-64
2021/01/21 09:30:12;;;;;;;5.18;4.68;;;;;;;18.59;44.92;99008.22;4903267;28;98314;-64
2021/01/21 09:32:39;;;;;;;6.07;4.65;;;;;;;18.25;45.84;99007.03;4899392;28;98560;-64
2021/01/21 09:35:14;;;;;;;5.85;4.95;;;;;;;17.79;45.32;99027.69;4899502;28;98407;-63
2021/01/21 09:37:47;;;;;;;5.45;4.75;;;;;;;17.56;45.45;99019.25;4894291;28;97886;-64
2021/01/21 09:40:19;;;;;;;6.28;4.90;;;;;;;17.37;45.87;99020.72;4894715;28;123381;-64
2021/01/21 09:42:48;;;;;;;5.47;4.75;;;;;;;17.12;46.26;99022.72;4877447;28;98531;-64
2021/01/21 09:45:14;;;;;;;6.22;5.35;;;;;;;16.89;45.92;99011.56;4899274;28;98147;-64
2021/01/21 09:47:40;;;;;;;6.65;5.07;;;;;;;16.71;46.69;99031.22;4894846;28;97955;-64
2021/01/21 09:50:07;;;;;;;6.85;5.60;;;;;;;16.47;46.34;99027.38;4900069;28;126909;-64
2021/01/21 09:52:34;;;;;;;6.65;5.03;;;;;;;16.40;46.69;99033.38;4894901;28;109294;-64
2021/01/21 09:55:00;;;;;;;5.85;5.13;;;;;;;16.29;46.63;99037.69;4918521;28;119561;-63
2021/01/21 09:57:27;;;;;;;6.10;5.20;;;;;;;16.25;46.34;99030.53;4922337;28;100754;-64
2021/01/21 09:59:54;;;;;;;5.53;4.97;;;;;;;16.23;46.63;99041.78;4922746;28;99057;-64
2021/01/21 10:02:20;;;;;;;5.88;5.28;;;;;;;16.13;46.26;99018.53;4922054;28;127522;-63
2021/01/21 10:04:46;;;;;;;5.70;5.10;;;;;;;16.13;47.27;99039.47;4920641;28;98693;-64
2021/01/21 10:07:12;;;;;;;5.55;4.97;;;;;;;16.17;47.30;99019.44;4920720;28;122712;-63
2021/01/21 10:09:38;;;;;;;5.85;5.25;;;;;;;16.16;46.66;99030.66;4921897;28;103847;-63
2021/01/21 10:12:05;;;;;;;5.72;4.93;;;;;;;16.17;46.12;99041.19;4920965;28;128165;-64
2021/01/21 10:14:32;;;;;;;7.20;5.10;;;;;;;16.27;46.02;99048.13;4921688;28;99115;-63
2021/01/21 10:16:58;;;;;;;6.28;4.88;;;;;;;16.31;46.64;99037.31;4923021;28;97923;-63
2021/01/21 10:19:27;;;;;;;6.50;4.57;;;;;;;16.36;46.66;99027.03;4920947;28;98898;-64
2021/01/21 10:21:53;;;;;;;4.68;4.18;;;;;;;16.41;46.70;99026.78;4901811;28;123979;-64
2021/01/21 10:24:21;;;;;;;5.18;4.20;;;;;;;16.48;46.81;99028.97;4896732;28;103222;-63
2021/01/21 10:26:47;;;;;;;4.95;4.45;;;;;;;16.53;46.94;99033.38;4922407;28;97881;-63
2021/01/21 10:29:13;;;;;;;5.07;4.10;;;;;;;16.47;47.37;99038.25;4921928;28;121337;-63
2021/01/21 10:31:40;;;;;;;6.10;4.45;;;;;;;16.42;47.75;99052.84;4879186;28;102677;-64
2021/01/21 10:34:07;;;;;;;5.82;4.82;;;;;;;16.44;46.99;99056.03;4903364;28;98220;-64
2021/01/21 10:36:33;;;;;;;4.40;4.00;;;;;;;16.67;47.18;99053.66;4921129;28;117045;-64
2021/01/21 10:38:59;;;;;;;6.03;4.35;;;;;;;16.90;46.49;99054.00;4907515;28;123242;-64
2021/01/21 10:41:25;;;;;;;4.85;4.20;;;;;;;17.24;46.24;99042.91;4910919;28;127952;-64
2021/01/21 10:43:51;;;;;;;4.32;3.90;;;;;;;17.51;46.39;99041.31;4920275;28;122179;-64
2021/01/21 10:46:18;;;;;;;4.93;4.38;;;;;;;17.62;46.14;99037.75;4914132;28;123140;-64
2021/01/21 10:48:44;;;;;;;4.78;4.22;;;;;;;17.66;45.91;99029.66;4913844;28;97801;-64
2021/01/21 10:51:10;;;;;;;4.57;3.72;;;;;;;17.63;45.05;99035.81;4902360;28;126944;-64
2021/01/21 10:53:36;;;;;;;5.22;3.88;;;;;;;17.67;45.40;99034.75;4902731;28;127434;-64
2021/01/21 10:56:02;;;;;;;4.82;4.20;;;;;;;17.79;45.24;99033.94;4916880;28;97820;-64
2021/01/21 10:58:28;;;;;;;4.45;4.05;;;;;;;17.78;45.47;99016.00;4886873;28;100302;-63
2021/01/21 11:00:54;;;;;;;4.18;3.78;;;;;;;17.73;45.53;99018.16;4902501;28;128262;-64
2021/01/21 11:03:20;;;;;;;4.30;3.75;;;;;;;17.73;46.01;99016.22;4919227;28;97911;-64
2021/01/21 11:05:46;;;;;;;4.22;3.83;;;;;;;17.81;46.16;99012.56;4902936;28;123815;-63
2021/01/21 11:08:13;;;;;;;5.20;3.95;;;;;;;17.86;46.54;99025.94;4920490;28;128360;-63
2021/01/21 11:10:42;;;;;;;5.03;3.67;;;;;;;17.85;46.84;99013.47;4903033;28;99289;-64
2021/01/21 11:13:11;;;;;;;4.30;3.88;;;;;;;17.78;46.46;99009.75;4912249;28;127575;-64
2021/01/21 11:15:37;;;;;;;5.05;3.60;;;;;;;17.72;47.18;99008.38;4922218;28;97855;-63
2021/01/21 11:18:03;;;;;;;4.03;3.63;;;;;;;17.71;47.56;99002.16;4912247;28;128173;-64
2021/01/21 11:20:34;;;;;;;4.53;3.70;;;;;;;17.69;47.47;99006.38;4920947;28;98304;-64
2021/01/21 11:23:00;;;;;;;4.18;3.78;;;;;;;17.74;47.30;99006.91;4917751;28;98282;-64
2021/01/21 11:25:26;;;;;;;4.97;3.63;;;;;;;17.79;47.53;99000.44;4921231;28;97746;-63
2021/01/21 11:27:53;;;;;;;4.05;3.50;;;;;;;17.91;47.31;99011.25;4920248;28;99471;-62
2021/01/21 11:30:19;;;;;;;5.00;3.63;;;;;;;17.93;46.78;99000.03;4919557;28;98496;-64
2021/01/21 11:32:45;;;;;;;4.10;3.60;;;;;;;17.99;46.69;98999.38;4898240;28;120990;-64
2021/01/21 11:35:12;;;;;;;4.13;3.63;;;;;;;18.10;46.43;99000.44;4893041;28;122487;-63
2021/01/21 11:37:38;;;;;;;4.40;3.53;;;;;;;18.26;46.23;98997.69;4901016;28;127890;-62
2021/01/21 11:40:05;;;;;;;4.38;3.78;;;;;;;18.33;46.18;98989.69;4912493;28;126185;-62
2021/01/21 11:42:31;;;;;;;4.57;3.70;;;;;;;18.39;46.57;98987.47;4918918;28;115826;-62
2021/01/21 11:44:57;;;;;;;3.95;3.55;;;;;;;18.37;46.74;98985.13;4920168;28;123231;-63
2021/01/21 11:47:23;;;;;;;4.38;3.58;;;;;;;18.43;46.99;98988.38;4914113;28;97967;-63
2021/01/21 11:49:49;;;;;;;3.97;3.55;;;;;;;18.43;46.69;98972.00;4900046;28;127232;-63
2021/01/21 11:52:15;;;;;;;4.03;3.60;;;;;;;18.44;47.12;98970.06;4916069;28;125955;-62
2021/01/21 11:54:42;;;;;;;4.47;3.90;;;;;;;18.40;46.62;98970.78;4918595;28;97758;-62
2021/01/21 11:57:08;;;;;;;4.45;3.30;;;;;;;18.47;47.36;98964.69;4917036;28;128037;-63
2021/01/21 11:59:34;;;;;;;3.80;2.95;;;;;;;18.59;47.73;98967.31;4915009;28;125996;-63
2021/01/21 12:02:00;;;;;;;4.30;3.35;;;;;;;18.62;48.29;98954.84;4917547;28;128250;-62
2021/01/21 12:04:26;;;;;;;4.30;3.17;;;;;;;18.50;48.19;98946.81;4909840;28;104405;-63
2021/01/21 12:06:52;;;;;;;3.67;3.10;;;;;;;18.36;48.24;98948.09;4918723;28;128010;-62
2021/01/21 12:09:18;;;;;;;3.65;2.83;;;;;;;18.30;48.33;98957.66;4912500;28;127866;-63
2021/01/21 12:11:44;;;;;;;3.33;3.03;;;;;;;18.29;48.25;98944.41;4918737;28;126270;-63
2021/01/21 12:14:10;;;;;;;4.40;3.42;;;;;;;18.34;48.37;98963.22;4911828;28;123264;-62
2021/01/21 12:16:36;;;;;;;5.35;3.47;;;;;;;18.23;47.97;98965.69;4920026;28;127468;-62
2021/01/21 12:19:02;;;;;;;4.93;3.70;;;;;;;18.09;48.27;98957.97;4890848;28;127593;-63
2021/01/21 12:21:31;;;;;;;5.25;3.95;;;;;;;18.05;48.19;98964.50;4914911;28;125616;-62
2021/01/21 12:23:57;;;;;;;4.53;3.65;;;;;;;17.98;48.70;98956.91;4916382;28;113964;-63
2021/01/21 12:26:24;;;;;;;5.20;3.50;;;;;;;18.04;48.68;98952.00;4901694;28;128128;-63
2021/01/21 12:28:50;;;;;;;3.63;3.33;;;;;;;17.98;48.83;98945.22;4919378;28;127194;-63
2021/01/21 12:31:16;;;;;;;4.50;3.88;;;;;;;17.87;49.56;98937.56;4919374;28;126596;-63
2021/01/21 12:33:42;;;;;;;3.88;3.38;;;;;;;17.74;49.15;98941.50;4901227;28;122125;-62
2021/01/21 12:36:08;;;;;;;5.70;4.22;;;;;;;17.71;48.83;98949.59;4917669;28;103340;-62
2021/01/21 12:38:34;;;;;;;5.10;4.60;;;;;;;17.65;49.75;98941.69;4918171;28;107430;-63
2021/01/21 12:41:00;;;;;;;6.72;5.45;;;;;;;17.66;49.28;98939.75;4901062;28;98066;-63
2021/01/21 12:43:26;;;;;;;7.10;5.82;;;;;;;17.67;49.71;98941.31;4913506;28;107923;-62